createdAt,value
2022-10-26T00:00:06.081Z,7.05
2022-10-26T00:02:32.822Z,5.88
2022-10-26T00:04:59.086Z,5.78
2022-10-26T00:07:25.453Z,6.10
2022-10-26T00:09:52.174Z,5.88
2022-10-26T00:12:18.444Z,6.25
2022-10-26T00:14:44.702Z,5.57
2022-10-26T00:17:10.943Z,6.60
2022-10-26T00:19:38.167Z,5.80
2022-10-26T00:22:04.497Z,6.00
2022-10-26T00:24:30.771Z,6.55
2022-10-26T00:26:57.211Z,5.90
2022-10-26T00:29:23.484Z,6.70
2022-10-26T00:31:49.765Z,5.60
2022-10-26T00:34:16.000Z,5.75
2022-10-26T00:36:42.229Z,6.40
2022-10-26T00:39:12.397Z,6.57
2022-10-26T00:41:39.094Z,6.28
2022-10-26T00:44:24.027Z,6.32
2022-10-26T00:46:50.506Z,5.88
2022-10-26T00:49:20.359Z,6.38
2022-10-26T00:51:50.784Z,5.47
2022-10-26T00:54:18.421Z,5.43
2022-10-26T00:56:45.660Z,5.75
2022-10-26T00:59:13.123Z,6.65
2022-10-26T01:01:41.005Z,6.18
2022-10-26T01:04:07.393Z,5.57
2022-10-26T01:06:34.512Z,5.57
2022-10-26T01:09:00.822Z,6.30
2022-10-26T01:11:27.250Z,8.45
2022-10-26T01:13:53.874Z,5.00
2022-10-26T01:16:29.345Z,6.10
2022-10-26T01:21:31.004Z,5.55
2022-10-26T01:24:11.226Z,5.00
2022-10-26T01:29:21.250Z,4.40
2022-10-26T01:32:08.895Z,4.97
2022-10-26T01:34:38.666Z,4.07
2022-10-26T01:37:12.033Z,4.55
2022-10-26T01:39:41.526Z,4.68
2022-10-26T01:42:09.060Z,4.50
2022-10-26T01:44:42.352Z,4.63
2022-10-26T01:47:13.612Z,4.65
2022-10-26T01:49:42.242Z,4.80
2022-10-26T01:52:09.519Z,4.68
2022-10-26T01:57:11.631Z,4.55
2022-10-26T01:59:58.237Z,4.25
2022-10-26T02:02:36.718Z,4.40
2022-10-26T02:05:15.118Z,4.47
2022-10-26T02:07:41.401Z,4.97
2022-10-26T02:10:18.776Z,5.00
2022-10-26T02:12:48.153Z,4.47
2022-10-26T02:15:22.350Z,4.88
2022-10-26T02:17:59.072Z,4.97
2022-10-26T02:20:27.501Z,4.97
2022-10-26T02:22:55.187Z,4.63
2022-10-26T02:25:28.134Z,5.20
2022-10-26T02:27:56.551Z,4.97
2022-10-26T02:30:22.923Z,5.25
2022-10-26T02:32:52.144Z,4.78
2022-10-26T02:35:20.557Z,5.32
2022-10-26T02:37:48.279Z,5.60
2022-10-26T02:40:16.893Z,5.25
2022-10-26T02:42:45.399Z,4.88
2022-10-26T02:45:14.502Z,4.25
2022-10-26T02:47:40.863Z,5.25
2022-10-26T02:50:07.288Z,4.93
2022-10-26T02:52:49.062Z,4.95
2022-10-26T02:55:22.140Z,5.25
2022-10-26T02:57:51.545Z,4.93
2022-10-26T03:00:18.390Z,5.03
2022-10-26T03:02:48.363Z,4.32
2022-10-26T03:05:20.437Z,4.95
2022-10-26T03:07:46.720Z,5.43
2022-10-26T03:10:13.018Z,4.80
2022-10-26T03:12:39.271Z,5.03
2022-10-26T03:15:05.800Z,5.30
2022-10-26T03:17:32.042Z,5.05
2022-10-26T03:19:58.353Z,5.35
2022-10-26T03:22:24.596Z,5.38
2022-10-26T03:24:51.137Z,5.75
2022-10-26T03:27:17.473Z,5.45
2022-10-26T03:29:43.757Z,5.25
2022-10-26T03:32:10.054Z,5.10
2022-10-26T03:34:36.314Z,5.00
2022-10-26T03:37:02.648Z,5.45
2022-10-26T03:39:29.009Z,5.25
2022-10-26T03:41:59.457Z,4.95
2022-10-26T03:44:25.836Z,5.35
2022-10-26T03:46:52.380Z,4.45
2022-10-26T03:49:18.653Z,4.78
2022-10-26T03:51:44.919Z,5.18
2022-10-26T03:54:11.191Z,5.53
2022-10-26T03:56:37.479Z,5.97
2022-10-26T03:59:04.161Z,5.57
2022-10-26T04:01:30.609Z,5.20
2022-10-26T04:03:57.430Z,5.82
2022-10-26T04:06:23.754Z,5.32
2022-10-26T04:08:50.103Z,5.95
2022-10-26T04:11:16.357Z,5.68
2022-10-26T04:13:42.605Z,6.72
2022-10-26T04:16:08.866Z,4.75
2022-10-26T04:18:35.194Z,6.13
2022-10-26T04:21:02.274Z,5.45
2022-10-26T04:23:28.577Z,4.90
2022-10-26T04:25:54.861Z,5.68
2022-10-26T04:28:21.287Z,5.00
2022-10-26T04:30:47.540Z,5.72
2022-10-26T04:33:13.853Z,5.13
2022-10-26T04:35:40.329Z,5.28
2022-10-26T04:38:07.388Z,5.30
2022-10-26T04:40:34.094Z,5.57
2022-10-26T04:43:00.396Z,5.32
2022-10-26T04:45:28.657Z,4.60
2022-10-26T04:48:01.106Z,4.70
2022-10-26T04:50:28.471Z,4.80
2022-10-26T04:52:54.943Z,4.85
2022-10-26T04:55:21.301Z,4.78
2022-10-26T04:57:47.825Z,4.57
2022-10-26T05:00:14.357Z,5.40
2022-10-26T05:02:40.679Z,4.60
2022-10-26T05:05:08.936Z,4.95
2022-10-26T05:07:37.546Z,5.13
2022-10-26T05:10:04.182Z,4.88
2022-10-26T05:12:30.496Z,5.10
2022-10-26T05:14:59.007Z,5.25
2022-10-26T05:17:25.818Z,5.03
2022-10-26T05:20:00.360Z,4.60
2022-10-26T05:22:26.675Z,4.77
2022-10-26T05:24:53.006Z,4.90
2022-10-26T05:27:19.430Z,4.82
2022-10-26T05:29:45.763Z,5.15
2022-10-26T05:32:12.072Z,5.53
2022-10-26T05:34:40.849Z,5.32
2022-10-26T05:37:07.943Z,4.90
2022-10-26T05:39:34.279Z,6.05
2022-10-26T05:42:00.611Z,5.20
2022-10-26T05:44:27.443Z,4.63
2022-10-26T05:46:53.721Z,4.97
2022-10-26T05:49:19.977Z,5.53
2022-10-26T05:51:46.304Z,5.35
2022-10-26T05:54:13.991Z,5.18
2022-10-26T05:56:41.194Z,4.97
2022-10-26T05:59:12.060Z,5.38
2022-10-26T06:01:38.330Z,4.85
2022-10-26T06:04:11.871Z,5.30
2022-10-26T06:06:40.086Z,4.32
2022-10-26T06:09:06.722Z,5.30
2022-10-26T06:11:33.133Z,5.55
2022-10-26T06:14:01.155Z,4.78
2022-10-26T06:16:32.064Z,5.05
2022-10-26T06:19:24.726Z,4.97
2022-10-26T06:22:09.531Z,5.30
2022-10-26T06:24:46.426Z,4.60
2022-10-26T06:27:31.143Z,5.05
2022-10-26T06:29:57.448Z,5.43
2022-10-26T06:32:25.012Z,5.13
2022-10-26T06:34:52.896Z,5.00
2022-10-26T06:37:19.633Z,5.35
2022-10-26T06:39:48.866Z,5.20
2022-10-26T06:42:17.742Z,5.88
2022-10-26T06:44:44.148Z,5.60
2022-10-26T06:47:18.650Z,5.80
2022-10-26T06:50:00.955Z,5.22
2022-10-26T06:52:33.799Z,4.57
2022-10-26T06:55:00.773Z,4.95
2022-10-26T06:57:36.873Z,5.07
2022-10-26T07:00:07.353Z,5.20
2022-10-26T07:02:33.899Z,4.70
2022-10-26T07:05:00.261Z,4.80
2022-10-26T07:07:27.556Z,4.45
2022-10-26T07:09:54.076Z,5.10
2022-10-26T07:12:20.352Z,4.88
2022-10-26T07:14:46.716Z,4.57
2022-10-26T07:17:13.172Z,5.40
2022-10-26T07:19:40.478Z,5.20
2022-10-26T07:22:06.758Z,4.70
2022-10-26T07:24:33.047Z,5.28
2022-10-26T07:26:59.420Z,4.80
2022-10-26T07:29:26.574Z,4.80
2022-10-26T07:34:20.503Z,5.30
2022-10-26T07:36:46.777Z,4.60
2022-10-26T07:39:13.062Z,4.30
2022-10-26T07:41:39.328Z,5.53
2022-10-26T07:44:05.614Z,5.00
2022-10-26T07:46:31.910Z,5.15
2022-10-26T07:48:58.631Z,4.63
2022-10-26T07:51:25.703Z,5.57
2022-10-26T07:53:52.426Z,5.35
2022-10-26T07:56:18.828Z,5.05
2022-10-26T07:58:45.105Z,4.28
2022-10-26T08:01:12.666Z,5.22
2022-10-26T08:03:39.069Z,5.78
2022-10-26T08:06:06.085Z,5.35
2022-10-26T08:08:32.554Z,5.03
2022-10-26T08:10:59.195Z,5.78
2022-10-26T08:13:25.742Z,4.75
2022-10-26T08:15:58.924Z,4.78
2022-10-26T08:18:25.693Z,4.72
2022-10-26T08:20:52.513Z,4.20
2022-10-26T08:23:18.844Z,4.47
2022-10-26T08:25:45.108Z,4.22
2022-10-26T08:28:11.374Z,4.07
2022-10-26T08:30:37.639Z,4.65
2022-10-26T08:33:04.992Z,4.40
2022-10-26T08:35:32.267Z,3.90
2022-10-26T08:37:58.775Z,4.65
2022-10-26T08:40:26.860Z,3.67
2022-10-26T08:42:55.128Z,4.13
2022-10-26T08:45:31.743Z,4.00
2022-10-26T08:48:04.600Z,3.42
2022-10-26T08:50:40.528Z,3.78
2022-10-26T08:53:09.057Z,3.72
2022-10-26T08:58:18.696Z,3.28
2022-10-26T09:00:47.191Z,3.53
2022-10-26T09:03:15.033Z,4.28
2022-10-26T09:05:47.232Z,4.10
2022-10-26T09:08:42.960Z,3.60
2022-10-26T09:11:18.408Z,3.00
2022-10-26T09:16:14.138Z,3.80
2022-10-26T09:21:40.551Z,3.33
2022-10-26T09:24:14.674Z,3.65
2022-10-26T09:26:54.860Z,3.97
2022-10-26T09:29:34.063Z,3.70
2022-10-26T09:32:01.296Z,5.20
2022-10-26T09:34:41.406Z,3.45
2022-10-26T09:37:13.464Z,3.70
2022-10-26T09:39:42.139Z,3.67
2022-10-26T09:42:16.039Z,3.45
2022-10-26T09:44:50.859Z,2.90
2022-10-26T09:47:17.195Z,3.22
2022-10-26T09:49:52.548Z,3.45
2022-10-26T09:52:18.899Z,2.75
2022-10-26T09:54:45.201Z,3.30
2022-10-26T09:57:14.627Z,3.63
2022-10-26T09:59:41.451Z,3.03
2022-10-26T10:02:26.481Z,2.95
2022-10-26T10:04:52.844Z,3.10
2022-10-26T10:07:19.122Z,3.05
2022-10-26T10:10:05.360Z,3.28
2022-10-26T10:12:31.639Z,2.95
2022-10-26T10:14:58.937Z,3.00
2022-10-26T10:17:25.703Z,2.92
2022-10-26T10:19:52.591Z,2.63
2022-10-26T10:22:22.596Z,3.03
2022-10-26T10:24:56.040Z,2.90
2022-10-26T10:27:23.316Z,3.42
2022-10-26T10:29:50.782Z,3.13
2022-10-26T10:32:18.007Z,3.10
2022-10-26T10:34:44.305Z,2.92
2022-10-26T10:37:26.007Z,3.17
2022-10-26T10:39:57.099Z,3.20
2022-10-26T10:42:29.875Z,2.88
2022-10-26T10:44:57.756Z,2.70
2022-10-26T10:47:28.840Z,2.65
2022-10-26T10:50:03.514Z,3.25
2022-10-26T10:52:31.761Z,3.25
2022-10-26T10:55:13.564Z,3.25
2022-10-26T10:57:39.828Z,3.10
2022-10-26T11:00:08.747Z,3.70
2022-10-26T11:02:53.615Z,4.07
2022-10-26T11:05:22.114Z,2.83
2022-10-26T11:08:07.358Z,3.13
2022-10-26T11:10:39.220Z,4.72
2022-10-26T11:13:10.333Z,3.40
2022-10-26T11:15:38.248Z,3.30
2022-10-26T11:18:07.633Z,3.40
2022-10-26T11:20:36.525Z,4.18
2022-10-26T11:23:09.819Z,4.38
2022-10-26T11:25:36.044Z,4.07
2022-10-26T11:28:25.752Z,3.65
2022-10-26T11:30:56.516Z,3.95
2022-10-26T11:33:26.877Z,3.10
2022-10-26T11:35:57.832Z,3.60
2022-10-26T11:38:33.257Z,3.88
2022-10-26T11:41:24.263Z,3.67
2022-10-26T11:44:09.034Z,3.15
2022-10-26T11:46:41.721Z,2.75
2022-10-26T11:49:13.751Z,2.85
2022-10-26T11:51:40.017Z,2.80
2022-10-26T11:54:12.281Z,2.50
2022-10-26T11:56:41.848Z,2.20
2022-10-26T11:59:15.074Z,2.60
2022-10-26T12:01:41.516Z,2.55
2022-10-26T12:04:08.046Z,3.00
2022-10-26T12:06:34.800Z,2.88
2022-10-26T12:09:13.943Z,2.95
2022-10-26T12:11:50.487Z,2.58
2022-10-26T12:14:23.665Z,2.53
2022-10-26T12:16:56.278Z,2.33
2022-10-26T12:19:28.902Z,2.60
2022-10-26T12:21:55.718Z,2.58
2022-10-26T12:24:21.938Z,2.17
2022-10-26T12:26:52.779Z,2.33
2022-10-26T12:29:29.633Z,2.45
2022-10-26T12:31:56.118Z,2.25
2022-10-26T12:34:24.374Z,2.17
2022-10-26T12:36:56.517Z,2.30
2022-10-26T12:39:30.758Z,2.20
2022-10-26T12:41:57.235Z,2.40
2022-10-26T12:44:42.347Z,1.95
2022-10-26T12:47:09.717Z,2.30
2022-10-26T12:49:55.231Z,1.90
2022-10-26T12:52:22.705Z,1.70
2022-10-26T12:54:54.662Z,1.80
2022-10-26T12:57:28.756Z,1.63
2022-10-26T13:00:00.312Z,2.13
2022-10-26T13:02:45.409Z,2.05
2022-10-26T13:05:17.764Z,2.28
2022-10-26T13:07:44.111Z,2.28
2022-10-26T13:10:10.345Z,2.25
2022-10-26T13:12:56.897Z,2.33
2022-10-26T13:15:26.148Z,2.15
2022-10-26T13:17:57.997Z,2.25
2022-10-26T13:20:24.370Z,2.20
2022-10-26T13:22:51.098Z,2.50
2022-10-26T13:25:23.426Z,2.05
2022-10-26T13:28:01.888Z,2.58
2022-10-26T13:30:34.212Z,2.03
2022-10-26T13:33:02.098Z,2.22
2022-10-26T13:35:28.801Z,2.85
2022-10-26T13:37:55.723Z,2.25
2022-10-26T13:40:26.663Z,2.50
2022-10-26T13:42:57.742Z,2.17
2022-10-26T13:45:42.785Z,2.88
2022-10-26T13:48:18.262Z,2.05
2022-10-26T13:50:49.251Z,2.25
2022-10-26T13:53:18.708Z,2.20
2022-10-26T13:55:51.841Z,2.38
2022-10-26T13:58:25.278Z,1.98
2022-10-26T14:01:01.764Z,2.88
2022-10-26T14:03:28.181Z,2.60
2022-10-26T14:05:54.600Z,2.45
2022-10-26T14:08:21.664Z,2.38
2022-10-26T14:10:51.998Z,2.45
2022-10-26T14:13:21.654Z,2.60
2022-10-26T14:15:47.948Z,2.90
2022-10-26T14:18:23.201Z,2.80
2022-10-26T14:23:25.949Z,3.28
2022-10-26T14:25:59.039Z,2.72
2022-10-26T14:28:27.913Z,3.00
2022-10-26T14:30:54.318Z,2.28
2022-10-26T14:33:25.976Z,2.47
2022-10-26T14:35:52.747Z,2.20
2022-10-26T14:38:26.656Z,2.47
2022-10-26T14:40:55.609Z,2.25
2022-10-26T14:43:23.287Z,2.78
2022-10-26T14:45:51.102Z,1.50
2022-10-26T14:48:22.793Z,2.42
2022-10-26T14:50:59.652Z,2.10
2022-10-26T14:53:34.402Z,1.90
2022-10-26T14:56:00.806Z,2.00
2022-10-26T15:01:36.592Z,1.60
2022-10-26T15:04:07.050Z,1.80
2022-10-26T15:06:40.682Z,2.00
2022-10-26T15:09:07.103Z,1.88
2022-10-26T15:11:34.428Z,1.83
2022-10-26T15:14:01.241Z,1.52
2022-10-26T15:16:29.387Z,1.83
2022-10-26T15:18:57.076Z,2.17
2022-10-26T15:21:27.821Z,1.65
2022-10-26T15:23:55.022Z,1.60
2022-10-26T15:26:21.739Z,1.70
2022-10-26T15:28:50.921Z,2.00
2022-10-26T15:31:17.198Z,1.80
2022-10-26T15:34:03.453Z,2.05
2022-10-26T15:36:33.198Z,1.85
2022-10-26T15:38:59.623Z,1.40
2022-10-26T15:41:30.595Z,1.52
2022-10-26T15:44:01.433Z,2.35
2022-10-26T15:46:31.513Z,1.58
2022-10-26T15:48:59.569Z,2.28
2022-10-26T15:51:26.007Z,1.83
2022-10-26T15:53:52.370Z,1.92
2022-10-26T15:56:19.644Z,1.83
2022-10-26T15:58:46.284Z,1.55
2022-10-26T16:01:20.118Z,1.67
2022-10-26T16:03:47.078Z,1.85
2022-10-26T16:06:18.139Z,1.90
2022-10-26T16:08:47.378Z,1.88
2022-10-26T16:11:13.661Z,1.63
2022-10-26T16:13:40.067Z,1.75
2022-10-26T16:16:11.332Z,1.60
2022-10-26T16:18:37.574Z,1.60
2022-10-26T16:21:04.152Z,1.88
2022-10-26T16:23:30.386Z,1.75
2022-10-26T16:25:56.754Z,2.30
2022-10-26T16:28:23.089Z,1.70
2022-10-26T16:30:49.427Z,2.10
2022-10-26T16:33:15.752Z,2.00
2022-10-26T16:35:42.013Z,2.20
2022-10-26T16:38:08.440Z,1.95
2022-10-26T16:40:34.753Z,1.83
2022-10-26T16:43:01.079Z,2.47
2022-10-26T16:45:27.817Z,2.08
2022-10-26T16:47:54.285Z,2.20
2022-10-26T16:50:22.071Z,1.95
2022-10-26T16:52:48.537Z,1.60
2022-10-26T16:55:15.505Z,2.47
2022-10-26T16:57:41.833Z,2.00
2022-10-26T17:00:08.358Z,2.85
2022-10-26T17:02:34.825Z,2.08
2022-10-26T17:05:04.265Z,2.10
2022-10-26T17:07:33.369Z,2.13
2022-10-26T17:09:59.631Z,2.38
2022-10-26T17:14:53.239Z,2.47
2022-10-26T17:17:19.546Z,2.70
2022-10-26T17:19:45.985Z,2.65
2022-10-26T17:22:12.317Z,2.40
2022-10-26T17:24:38.602Z,2.30
2022-10-26T17:27:04.873Z,1.90
2022-10-26T17:29:31.353Z,2.08
2022-10-26T17:31:58.056Z,2.17
2022-10-26T17:34:24.431Z,2.47
2022-10-26T17:36:50.844Z,2.90
2022-10-26T17:39:19.157Z,2.70
2022-10-26T17:41:45.581Z,3.05
2022-10-26T17:44:11.851Z,3.33
2022-10-26T17:46:38.103Z,2.92
2022-10-26T17:49:04.468Z,2.63
2022-10-26T17:51:30.857Z,2.72
2022-10-26T17:53:58.928Z,3.17
2022-10-26T17:56:26.892Z,2.72
2022-10-26T17:58:54.069Z,2.90
2022-10-26T18:01:20.925Z,2.58
2022-10-26T18:03:47.365Z,3.17
2022-10-26T18:06:13.761Z,2.72
2022-10-26T18:08:40.217Z,3.08
2022-10-26T18:11:07.357Z,2.67
2022-10-26T18:13:34.248Z,2.70
2022-10-26T18:16:04.283Z,2.90
2022-10-26T18:18:30.751Z,2.58
2022-10-26T18:21:00.725Z,2.42
2022-10-26T18:23:27.025Z,2.70
2022-10-26T18:26:00.175Z,2.80
2022-10-26T18:28:26.912Z,3.05
2022-10-26T18:30:53.179Z,3.15
2022-10-26T18:33:19.809Z,3.05
2022-10-26T18:35:46.634Z,2.88
2022-10-26T18:38:12.911Z,4.38
2022-10-26T18:40:39.176Z,3.10
2022-10-26T18:43:05.442Z,3.63
2022-10-26T18:45:31.709Z,3.25
2022-10-26T18:47:57.992Z,4.05
2022-10-26T18:50:24.344Z,3.95
2022-10-26T18:52:51.813Z,4.10
2022-10-26T18:55:18.116Z,5.03
2022-10-26T18:57:44.669Z,4.53
2022-10-26T19:00:11.286Z,3.47
2022-10-26T19:02:37.608Z,4.05
2022-10-26T19:05:04.169Z,3.85
2022-10-26T19:07:30.436Z,3.90
2022-10-26T19:09:56.932Z,3.28
2022-10-26T19:12:23.210Z,2.80
2022-10-26T19:14:51.930Z,2.85
2022-10-26T19:17:18.289Z,3.42
2022-10-26T19:19:44.543Z,3.05
2022-10-26T19:22:11.479Z,2.90
2022-10-26T19:24:37.789Z,2.78
2022-10-26T19:27:04.362Z,3.20
2022-10-26T19:29:30.741Z,2.50
2022-10-26T19:31:58.299Z,2.90
2022-10-26T19:34:24.658Z,2.70
2022-10-26T19:36:50.966Z,2.83
2022-10-26T19:39:17.769Z,2.55
2022-10-26T19:41:44.809Z,3.10
2022-10-26T19:44:11.853Z,3.00
2022-10-26T19:46:39.768Z,3.53
2022-10-26T19:49:06.501Z,3.28
2022-10-26T19:51:32.947Z,3.10
2022-10-26T19:54:03.441Z,3.70
2022-10-26T19:56:30.954Z,3.60
2022-10-26T19:58:57.269Z,4.10
2022-10-26T20:01:23.778Z,3.03
2022-10-26T20:03:50.233Z,3.85
2022-10-26T20:06:18.192Z,3.63
2022-10-26T20:08:45.344Z,3.78
2022-10-26T20:11:15.455Z,3.35
2022-10-26T20:13:43.005Z,3.30
2022-10-26T20:16:09.409Z,3.38
2022-10-26T20:18:35.862Z,3.92
2022-10-26T20:21:06.118Z,4.43
2022-10-26T20:23:32.353Z,3.35
2022-10-26T20:26:00.344Z,3.55
2022-10-26T20:28:26.955Z,4.15
2022-10-26T20:30:53.219Z,3.58
2022-10-26T20:33:19.498Z,3.50
2022-10-26T20:35:45.756Z,4.25
2022-10-26T20:38:16.410Z,3.85
2022-10-26T20:40:42.810Z,3.72
2022-10-26T20:43:09.739Z,4.10
2022-10-26T20:45:36.223Z,4.38
2022-10-26T20:48:02.868Z,4.43
2022-10-26T20:50:29.962Z,4.50
2022-10-26T20:53:02.179Z,4.35
2022-10-26T20:55:49.897Z,4.60
2022-10-26T20:58:28.364Z,4.68
2022-10-26T21:01:01.847Z,4.82
2022-10-26T21:03:28.141Z,5.05
2022-10-26T21:05:54.425Z,4.90
2022-10-26T21:08:20.962Z,4.80
2022-10-26T21:10:49.049Z,4.80
2022-10-26T21:13:15.301Z,5.05
2022-10-26T21:15:41.552Z,4.40
2022-10-26T21:18:07.788Z,4.30
2022-10-26T21:20:34.066Z,4.13
2022-10-26T21:23:00.371Z,4.15
2022-10-26T21:25:27.060Z,4.78
2022-10-26T21:27:58.505Z,4.22
2022-10-26T21:30:25.263Z,4.10
2022-10-26T21:32:52.259Z,3.85
2022-10-26T21:35:18.659Z,4.25
2022-10-26T21:37:45.374Z,4.30
2022-10-26T21:40:12.199Z,4.25
2022-10-26T21:42:38.471Z,4.20
2022-10-26T21:45:04.962Z,4.63
2022-10-26T21:47:31.228Z,4.50
2022-10-26T21:49:58.170Z,4.57
2022-10-26T21:52:24.606Z,4.75
2022-10-26T21:54:51.032Z,4.65
2022-10-26T21:57:17.286Z,4.30
2022-10-26T21:59:43.584Z,4.50
2022-10-26T22:02:09.901Z,4.68
2022-10-26T22:04:36.350Z,4.07
2022-10-26T22:07:02.683Z,4.55
2022-10-26T22:09:29.131Z,4.93
2022-10-26T22:11:55.370Z,4.30
2022-10-26T22:14:22.223Z,4.50
2022-10-26T22:16:48.468Z,4.43
2022-10-26T22:19:14.774Z,5.32
2022-10-26T22:21:41.501Z,4.80
2022-10-26T22:24:08.217Z,4.75
2022-10-26T22:26:35.531Z,4.63
2022-10-26T22:29:01.978Z,4.60
2022-10-26T22:34:06.369Z,4.38
2022-10-26T22:36:34.399Z,4.78
2022-10-26T22:39:00.667Z,4.75
2022-10-26T22:41:27.105Z,4.53
2022-10-26T22:43:53.527Z,4.15
2022-10-26T22:46:21.273Z,4.90
2022-10-26T22:48:47.807Z,4.45
2022-10-26T22:51:15.301Z,4.70
2022-10-26T22:53:41.952Z,4.25
2022-10-26T22:56:09.178Z,5.40
2022-10-26T22:58:35.919Z,4.88
2022-10-26T23:01:03.494Z,4.50
2022-10-26T23:03:29.830Z,4.07
2022-10-26T23:05:57.387Z,4.10
2022-10-26T23:08:24.078Z,4.30
2022-10-26T23:10:50.367Z,4.55
2022-10-26T23:13:16.657Z,4.28
2022-10-26T23:15:42.914Z,4.47
2022-10-26T23:18:09.153Z,4.35
2022-10-26T23:20:35.481Z,4.22
2022-10-26T23:23:01.766Z,4.28
2022-10-26T23:25:28.467Z,4.28
2022-10-26T23:27:54.712Z,4.40
2022-10-26T23:30:21.089Z,4.05
2022-10-26T23:32:47.385Z,4.25
2022-10-26T23:35:13.842Z,4.13
2022-10-26T23:37:40.110Z,4.60
2022-10-26T23:40:06.717Z,3.80
2022-10-26T23:42:33.038Z,3.90
2022-10-26T23:44:59.272Z,4.45
2022-10-26T23:47:25.521Z,4.72
2022-10-26T23:49:52.443Z,3.67
2022-10-26T23:52:18.678Z,4.35
2022-10-26T23:54:45.049Z,4.28
2022-10-26T23:57:11.392Z,5.07
2022-10-26T23:59:37.698Z,4.38
